createdAt,value
2019-01-29T00:04:38.141Z,9.10
2019-01-29T00:06:49.051Z,9.07
2019-01-29T00:08:59.832Z,7.97
2019-01-29T00:11:10.657Z,6.10
2019-01-29T00:13:21.476Z,7.93
2019-01-29T00:15:32.281Z,7.67
2019-01-29T00:17:43.085Z,5.53
2019-01-29T00:19:53.945Z,5.73
2019-01-29T00:22:04.846Z,8.43
2019-01-29T00:24:15.659Z,5.63
2019-01-29T00:26:26.473Z,4.60
2019-01-29T00:28:37.260Z,5.37
2019-01-29T00:30:48.175Z,6.90
2019-01-29T00:32:58.987Z,7.03
2019-01-29T00:35:09.903Z,7.30
2019-01-29T00:37:20.700Z,5.33
2019-01-29T00:39:31.498Z,5.90
2019-01-29T00:41:42.318Z,6.03
2019-01-29T00:43:53.127Z,6.10
2019-01-29T00:46:03.942Z,6.37
2019-01-29T00:48:14.775Z,6.80
2019-01-29T00:50:25.584Z,7.77
2019-01-29T00:52:41.908Z,7.47
2019-01-29T00:54:49.187Z,6.43
2019-01-29T00:57:00.032Z,4.90
2019-01-29T00:59:10.917Z,6.40
2019-01-29T01:01:21.850Z,5.37
2019-01-29T01:03:32.770Z,6.60
2019-01-29T01:05:43.683Z,7.43
2019-01-29T01:07:54.475Z,7.03
2019-01-29T01:10:46.952Z,7.50
2019-01-29T01:12:57.789Z,8.33
2019-01-29T01:15:50.239Z,8.60
2019-01-29T01:18:01.036Z,6.27
2019-01-29T01:20:53.537Z,6.03
2019-01-29T01:23:04.424Z,6.73
2019-01-29T01:25:56.891Z,5.97
2019-01-29T01:28:07.700Z,6.33
2019-01-29T01:30:18.706Z,6.63
2019-01-29T01:32:29.523Z,6.97
2019-01-29T01:34:40.313Z,7.13
2019-01-29T01:36:51.223Z,8.13
2019-01-29T01:39:43.689Z,5.87
2019-01-29T01:41:54.481Z,6.90
2019-01-29T01:44:05.413Z,7.17
2019-01-29T01:46:57.906Z,6.70
2019-01-29T01:49:08.697Z,5.00
2019-01-29T01:51:19.507Z,6.80
2019-01-29T01:53:30.325Z,9.33
2019-01-29T01:55:41.129Z,6.63
2019-01-29T01:57:51.928Z,6.03
2019-01-29T02:00:44.365Z,5.77
2019-01-29T02:02:55.297Z,5.33
2019-01-29T02:05:47.767Z,7.27
2019-01-29T02:07:58.561Z,6.40
2019-01-29T02:10:51.033Z,8.27
2019-01-29T02:13:01.945Z,6.23
2019-01-29T02:15:12.973Z,6.93
2019-01-29T02:17:23.775Z,6.10
2019-01-29T02:19:34.632Z,7.70
2019-01-29T02:21:45.430Z,5.67
2019-01-29T02:23:56.251Z,7.40
2019-01-29T02:26:07.058Z,9.13
2019-01-29T02:28:17.965Z,8.50
2019-01-29T02:30:28.789Z,8.07
2019-01-29T02:32:39.580Z,6.40
2019-01-29T02:34:50.404Z,7.63
2019-01-29T02:37:01.185Z,7.67
2019-01-29T02:39:12.104Z,5.80
2019-01-29T02:41:22.904Z,8.60
2019-01-29T02:43:33.689Z,5.83
2019-01-29T02:45:44.510Z,9.90
2019-01-29T02:47:55.327Z,6.37
2019-01-29T02:50:47.827Z,6.77
2019-01-29T02:52:58.625Z,7.10
2019-01-29T02:55:51.088Z,5.57
2019-01-29T02:58:01.980Z,6.00
2019-01-29T03:00:54.437Z,6.87
2019-01-29T03:03:05.225Z,6.17
2019-01-29T03:05:57.694Z,10.10
2019-01-29T03:08:08.580Z,6.27
2019-01-29T03:11:01.046Z,8.97
2019-01-29T03:13:11.838Z,6.57
2019-01-29T03:16:04.309Z,8.57
2019-01-29T03:20:47.476Z,6.47
2019-01-29T03:22:58.308Z,5.17
2019-01-29T03:25:50.745Z,6.23
2019-01-29T03:28:01.553Z,4.50
2019-01-29T03:30:54.002Z,6.97
2019-01-29T03:33:04.808Z,5.77
2019-01-29T03:35:15.710Z,7.37
2019-01-29T03:37:26.491Z,9.90
2019-01-29T03:39:37.305Z,6.73
2019-01-29T03:41:48.126Z,9.57
2019-01-29T03:43:58.942Z,6.73
2019-01-29T03:46:09.857Z,4.73
2019-01-29T03:48:20.682Z,4.50
2019-01-29T03:50:31.480Z,6.43
2019-01-29T03:52:42.304Z,6.57
2019-01-29T03:54:53.126Z,7.73
2019-01-29T03:57:03.927Z,8.07
2019-01-29T03:59:14.739Z,6.57
2019-01-29T04:01:25.662Z,7.17
2019-01-29T04:03:36.497Z,6.53
2019-01-29T04:05:47.390Z,6.17
2019-01-29T04:07:58.285Z,6.80
2019-01-29T04:10:50.747Z,7.00
2019-01-29T04:13:01.542Z,6.00
2019-01-29T04:15:53.991Z,6.57
2019-01-29T04:18:04.896Z,6.73
2019-01-29T04:20:57.390Z,7.53
2019-01-29T04:23:08.184Z,7.43
2019-01-29T04:25:19.018Z,7.53
2019-01-29T04:27:29.932Z,7.93
2019-01-29T04:29:40.727Z,8.00
2019-01-29T04:31:51.552Z,10.27
2019-01-29T04:34:02.453Z,10.70
2019-01-29T04:36:13.259Z,9.63
2019-01-29T04:38:24.085Z,9.27
2019-01-29T04:40:34.922Z,9.27
2019-01-29T04:42:45.926Z,9.37
2019-01-29T04:44:56.739Z,8.47
2019-01-29T04:47:07.619Z,8.43
2019-01-29T04:49:18.432Z,9.77
2019-01-29T04:51:29.309Z,12.53
2019-01-29T04:53:40.165Z,8.97
2019-01-29T04:55:50.989Z,8.87
2019-01-29T04:58:01.812Z,8.70
2019-01-29T05:00:54.246Z,8.20
2019-01-29T05:03:05.155Z,7.87
2019-01-29T05:05:57.623Z,8.93
2019-01-29T05:08:08.440Z,9.27
2019-01-29T05:11:00.892Z,10.13
2019-01-29T05:13:11.706Z,7.30
2019-01-29T05:15:22.596Z,7.33
2019-01-29T05:17:33.420Z,10.23
2019-01-29T05:19:44.337Z,9.70
2019-01-29T05:22:15.050Z,8.47
2019-01-29T05:24:25.868Z,8.47
2019-01-29T05:26:36.705Z,10.20
2019-01-29T05:28:47.499Z,7.97
2019-01-29T05:30:58.295Z,8.40
2019-01-29T05:33:09.102Z,6.90
2019-01-29T05:35:20.092Z,6.70
2019-01-29T05:37:30.892Z,5.40
2019-01-29T05:40:23.508Z,5.90
2019-01-29T05:42:34.334Z,6.23
2019-01-29T05:44:45.149Z,8.30
2019-01-29T05:46:55.969Z,8.20
2019-01-29T05:49:06.994Z,7.23
2019-01-29T05:51:17.812Z,4.70
2019-01-29T05:53:28.623Z,5.77
2019-01-29T05:55:39.545Z,7.77
2019-01-29T05:57:50.392Z,7.83
2019-01-29T06:00:01.193Z,9.20
2019-01-29T06:02:11.991Z,8.60
2019-01-29T06:04:22.920Z,6.63
2019-01-29T06:06:53.610Z,6.70
2019-01-29T06:09:46.078Z,7.40
2019-01-29T06:11:56.862Z,5.53
2019-01-29T06:14:07.803Z,7.23
2019-01-29T06:16:18.615Z,8.13
2019-01-29T06:18:29.425Z,8.70
2019-01-29T06:20:40.302Z,8.73
2019-01-29T06:22:51.194Z,5.00
2019-01-29T06:25:02.124Z,7.57
2019-01-29T06:27:12.995Z,5.40
2019-01-29T06:29:23.808Z,5.17
2019-01-29T06:31:34.652Z,6.33
2019-01-29T06:33:45.446Z,6.63
2019-01-29T06:35:56.294Z,7.63
2019-01-29T06:38:07.165Z,8.13
2019-01-29T06:40:37.873Z,6.70
2019-01-29T06:42:48.698Z,5.97
2019-01-29T06:44:59.561Z,6.87
2019-01-29T06:47:10.342Z,5.33
2019-01-29T06:49:21.145Z,5.67
2019-01-29T06:51:31.952Z,8.93
2019-01-29T06:53:42.741Z,5.50
2019-01-29T06:55:53.583Z,10.30
2019-01-29T06:58:04.497Z,6.93
2019-01-29T07:00:35.166Z,8.27
2019-01-29T07:03:27.644Z,10.10
2019-01-29T07:05:38.463Z,6.83
2019-01-29T07:07:49.365Z,7.93
2019-01-29T07:10:00.267Z,7.00
2019-01-29T07:12:11.020Z,7.07
2019-01-29T07:14:21.824Z,6.57
2019-01-29T07:19:11.550Z,8.40
2019-01-29T07:21:22.388Z,9.80
2019-01-29T07:23:33.206Z,8.33
2019-01-29T07:25:45.178Z,4.97
2019-01-29T07:27:56.370Z,8.87
2019-01-29T07:30:48.821Z,6.50
2019-01-29T07:32:59.627Z,6.23
2019-01-29T07:35:10.542Z,7.40
2019-01-29T07:37:22.097Z,6.80
2019-01-29T07:39:34.201Z,6.17
2019-01-29T07:41:45.036Z,6.73
2019-01-29T07:43:55.835Z,6.73
2019-01-29T07:48:58.966Z,9.10
2019-01-29T07:51:09.851Z,10.53
2019-01-29T07:53:20.769Z,8.17
2019-01-29T07:55:31.787Z,8.20
2019-01-29T07:57:42.670Z,10.30
2019-01-29T07:59:53.499Z,8.40
2019-01-29T08:02:04.416Z,7.23
2019-01-29T08:04:15.276Z,7.27
2019-01-29T08:06:26.067Z,9.43
2019-01-29T08:08:36.932Z,5.50
2019-01-29T08:10:47.728Z,8.67
2019-01-29T08:12:58.628Z,6.10
2019-01-29T08:15:51.114Z,6.07
2019-01-29T08:18:43.588Z,8.00
2019-01-29T08:20:54.458Z,8.93
2019-01-29T08:23:05.296Z,9.70
2019-01-29T08:25:16.327Z,8.50
2019-01-29T08:27:27.135Z,6.60
2019-01-29T08:29:37.947Z,8.00
2019-01-29T08:31:48.919Z,7.13
2019-01-29T08:33:59.722Z,7.57
2019-01-29T08:36:10.546Z,7.40
2019-01-29T08:38:21.342Z,6.63
2019-01-29T08:40:32.191Z,6.30
2019-01-29T08:42:43.190Z,8.27
2019-01-29T08:44:54.008Z,8.73
2019-01-29T08:47:04.824Z,7.10
2019-01-29T08:49:57.290Z,6.47
2019-01-29T08:52:08.117Z,7.20
2019-01-29T08:54:18.923Z,8.10
2019-01-29T08:56:29.733Z,7.20
2019-01-29T08:58:40.536Z,6.73
2019-01-29T09:00:51.390Z,7.27
2019-01-29T09:03:02.403Z,4.60
2019-01-29T09:05:13.306Z,4.83
2019-01-29T09:07:24.229Z,4.53
2019-01-29T09:09:35.019Z,7.37
2019-01-29T09:11:45.845Z,5.17
2019-01-29T09:13:56.641Z,4.80
2019-01-29T09:16:07.575Z,7.23
2019-01-29T09:18:18.360Z,6.90
2019-01-29T09:20:29.168Z,9.83
2019-01-29T09:22:40.076Z,6.27
2019-01-29T09:24:50.868Z,4.87
2019-01-29T09:27:01.682Z,7.50
2019-01-29T09:29:17.593Z,6.63
2019-01-29T09:31:25.215Z,5.57
2019-01-29T09:33:36.031Z,5.13
2019-01-29T09:35:46.843Z,8.40
2019-01-29T09:37:57.643Z,7.07
2019-01-29T09:40:28.304Z,6.23
2019-01-29T09:42:39.307Z,5.47
2019-01-29T09:44:50.117Z,6.53
2019-01-29T09:47:01.017Z,4.77
2019-01-29T09:49:11.831Z,5.77
2019-01-29T09:51:22.629Z,5.83
2019-01-29T09:53:33.516Z,6.33
2019-01-29T09:55:44.305Z,6.87
2019-01-29T09:57:55.140Z,6.83
2019-01-29T10:00:47.593Z,7.00
2019-01-29T10:02:58.417Z,5.03
2019-01-29T10:05:09.335Z,6.53
2019-01-29T10:07:20.117Z,6.70
2019-01-29T10:09:30.937Z,4.90
2019-01-29T10:11:41.747Z,5.30
2019-01-29T10:13:52.549Z,5.80
2019-01-29T10:16:03.642Z,5.03
2019-01-29T10:18:14.704Z,7.10
2019-01-29T10:21:07.203Z,5.87
2019-01-29T10:23:18.015Z,6.70
2019-01-29T10:25:37.107Z,5.40
2019-01-29T10:27:41.651Z,6.10
2019-01-29T10:29:52.479Z,8.23
2019-01-29T10:32:44.930Z,5.93
2019-01-29T10:34:55.789Z,5.73
2019-01-29T10:37:06.531Z,6.20
2019-01-29T10:39:17.470Z,5.00
2019-01-29T10:41:28.286Z,5.57
2019-01-29T10:43:39.084Z,4.90
2019-01-29T10:45:49.903Z,4.03
2019-01-29T10:48:00.699Z,5.00
2019-01-29T10:50:53.152Z,5.30
2019-01-29T10:53:04.068Z,4.13
2019-01-29T10:55:56.523Z,4.40
2019-01-29T10:58:07.425Z,3.63
2019-01-29T11:00:39.024Z,4.67
2019-01-29T11:02:49.924Z,4.30
2019-01-29T11:05:00.835Z,6.00
2019-01-29T11:07:11.673Z,4.90
2019-01-29T11:09:25.525Z,4.20
2019-01-29T11:11:35.309Z,3.70
2019-01-29T11:13:46.119Z,4.13
2019-01-29T11:15:57.051Z,4.93
2019-01-29T11:18:49.501Z,6.37
2019-01-29T11:21:00.484Z,7.23
2019-01-29T11:23:11.266Z,7.10
2019-01-29T11:26:03.725Z,5.13
2019-01-29T11:28:14.538Z,5.53
2019-01-29T11:30:45.207Z,4.97
2019-01-29T11:32:56.230Z,6.47
2019-01-29T11:35:48.678Z,3.43
2019-01-29T11:37:59.600Z,7.77
2019-01-29T11:40:30.886Z,6.23
2019-01-29T11:42:41.776Z,4.47
2019-01-29T11:44:52.672Z,4.30
2019-01-29T11:47:03.665Z,4.70
2019-01-29T11:49:14.493Z,4.67
2019-01-29T11:51:25.391Z,5.07
2019-01-29T11:53:36.207Z,4.90
2019-01-29T11:55:47.009Z,4.53
2019-01-29T11:57:57.929Z,4.73
2019-01-29T12:00:49.598Z,6.37
2019-01-29T12:03:00.539Z,7.07
2019-01-29T12:05:11.463Z,5.37
2019-01-29T12:07:22.268Z,6.03
2019-01-29T12:09:33.087Z,5.10
2019-01-29T12:11:43.903Z,7.47
2019-01-29T12:13:54.687Z,5.87
2019-01-29T12:16:05.619Z,7.13
2019-01-29T12:18:16.425Z,4.50
2019-01-29T12:20:27.363Z,6.07
2019-01-29T12:22:38.359Z,4.43
2019-01-29T12:24:49.189Z,5.13
2019-01-29T12:26:59.992Z,5.30
2019-01-29T12:29:10.823Z,5.30
2019-01-29T12:31:21.637Z,6.10
2019-01-29T12:33:32.569Z,4.47
2019-01-29T12:35:43.403Z,6.10
2019-01-29T12:37:54.204Z,7.77
2019-01-29T12:40:26.792Z,6.70
2019-01-29T12:42:37.681Z,4.40
2019-01-29T12:44:48.486Z,4.97
2019-01-29T12:46:59.324Z,5.33
2019-01-29T12:49:10.205Z,4.73
2019-01-29T12:53:43.655Z,3.60
2019-01-29T12:55:54.483Z,5.43
2019-01-29T12:58:46.919Z,4.30
2019-01-29T13:03:16.922Z,3.60
2019-01-29T13:05:27.737Z,4.20
2019-01-29T13:07:38.582Z,4.97
2019-01-29T13:10:31.019Z,3.67
2019-01-29T13:12:41.935Z,6.20
2019-01-29T13:14:52.734Z,6.30
2019-01-29T13:17:03.648Z,6.70
2019-01-29T13:19:14.457Z,4.30
2019-01-29T13:21:38.934Z,4.23
2019-01-29T13:23:49.757Z,3.73
2019-01-29T13:26:00.543Z,5.20
2019-01-29T13:28:11.512Z,4.23
2019-01-29T13:31:03.972Z,2.87
2019-01-29T13:33:14.989Z,4.57
2019-01-29T13:36:07.421Z,4.77
2019-01-29T13:38:18.251Z,4.90
2019-01-29T13:41:10.738Z,4.13
2019-01-29T13:43:21.563Z,4.97
2019-01-29T13:45:32.494Z,5.23
2019-01-29T13:47:43.424Z,5.57
2019-01-29T13:49:54.291Z,5.23
2019-01-29T13:52:05.045Z,3.37
2019-01-29T13:54:15.903Z,5.40
2019-01-29T13:56:26.709Z,4.20
2019-01-29T13:58:37.547Z,4.77
2019-01-29T14:00:48.389Z,5.17
2019-01-29T14:05:51.659Z,4.03
2019-01-29T14:08:02.573Z,4.50
2019-01-29T14:10:55.051Z,4.97
2019-01-29T14:13:05.954Z,4.20
2019-01-29T14:15:58.438Z,4.23
2019-01-29T14:18:50.876Z,5.83
2019-01-29T14:21:01.740Z,5.57
2019-01-29T14:23:12.667Z,7.23
2019-01-29T14:25:23.579Z,8.37
2019-01-29T14:27:34.386Z,5.80
2019-01-29T14:29:45.197Z,5.73
2019-01-29T14:31:56.052Z,4.50
2019-01-29T14:34:06.837Z,5.87
2019-01-29T14:36:17.679Z,3.80
2019-01-29T14:39:10.122Z,4.20
2019-01-29T14:41:20.973Z,3.63
2019-01-29T14:43:51.645Z,3.83
2019-01-29T14:46:02.548Z,4.87
2019-01-29T14:48:13.358Z,3.50
2019-01-29T14:51:05.838Z,3.60
2019-01-29T14:53:16.668Z,6.60
2019-01-29T14:55:27.591Z,2.50
2019-01-29T14:57:38.401Z,3.60
2019-01-29T14:59:49.234Z,2.37
2019-01-29T15:02:19.941Z,3.80
2019-01-29T15:04:30.729Z,4.40
2019-01-29T15:06:41.578Z,2.67
2019-01-29T15:08:52.366Z,1.57
2019-01-29T15:11:03.172Z,2.60
2019-01-29T15:13:14.083Z,1.50
2019-01-29T15:16:04.635Z,2.07
2019-01-29T15:18:35.342Z,4.83
2019-01-29T15:20:46.166Z,3.13
2019-01-29T15:22:57.096Z,1.77
2019-01-29T15:25:49.549Z,1.87
2019-01-29T15:28:00.459Z,2.57
2019-01-29T15:30:31.248Z,1.60
2019-01-29T15:32:42.194Z,3.20
2019-01-29T15:34:52.999Z,1.50
2019-01-29T15:37:45.463Z,3.53
2019-01-29T15:39:56.401Z,2.03
2019-01-29T15:42:07.306Z,2.47
2019-01-29T15:44:18.136Z,2.00
2019-01-29T15:46:28.931Z,1.60
2019-01-29T15:48:39.764Z,3.90
2019-01-29T15:50:50.630Z,2.50
2019-01-29T15:53:01.664Z,3.80
2019-01-29T15:55:54.187Z,2.93
2019-01-29T15:58:46.619Z,3.27
2019-01-29T16:00:57.424Z,2.57
2019-01-29T16:03:08.227Z,3.57
2019-01-29T16:06:00.697Z,3.53
2019-01-29T16:08:53.167Z,2.93
2019-01-29T16:11:03.965Z,3.70
2019-01-29T16:13:14.774Z,4.13
2019-01-29T16:16:07.247Z,3.70
2019-01-29T16:18:18.067Z,4.73
2019-01-29T16:20:28.990Z,3.93
2019-01-29T16:22:39.793Z,3.63
2019-01-29T16:24:50.606Z,3.20
2019-01-29T16:27:06.669Z,5.17
2019-01-29T16:29:14.234Z,4.60
2019-01-29T16:31:25.278Z,3.40
2019-01-29T16:33:36.081Z,4.70
2019-01-29T16:35:46.893Z,5.50
2019-01-29T16:37:57.921Z,4.47
2019-01-29T16:40:50.384Z,4.13
2019-01-29T16:43:01.299Z,5.60
2019-01-29T16:45:53.763Z,4.97
2019-01-29T16:48:46.238Z,7.13
2019-01-29T16:50:57.040Z,5.40
2019-01-29T16:53:08.275Z,7.30
2019-01-29T16:56:00.782Z,4.93
2019-01-29T16:58:11.585Z,4.83
2019-01-29T17:01:04.059Z,9.10
2019-01-29T17:03:14.868Z,7.30
2019-01-29T17:06:07.333Z,8.20
2019-01-29T17:08:18.231Z,4.90
2019-01-29T17:11:10.699Z,7.07
2019-01-29T17:13:21.513Z,5.97
2019-01-29T17:16:14.410Z,5.53
2019-01-29T17:18:25.320Z,7.50
2019-01-29T17:20:56.750Z,8.23
2019-01-29T17:23:50.433Z,7.17
2019-01-29T17:26:01.232Z,7.30
2019-01-29T17:28:12.058Z,7.63
2019-01-29T17:31:04.557Z,6.67
2019-01-29T17:36:16.139Z,7.57
2019-01-29T17:38:27.009Z,6.67
2019-01-29T17:40:37.874Z,8.47
2019-01-29T17:42:48.742Z,8.50
2019-01-29T17:44:59.559Z,6.97
2019-01-29T17:47:10.393Z,6.33
2019-01-29T17:49:21.205Z,9.30
2019-01-29T17:51:32.025Z,8.30
2019-01-29T17:53:42.866Z,7.27
2019-01-29T17:55:53.789Z,10.50
2019-01-29T17:58:46.273Z,8.23
2019-01-29T18:03:29.504Z,7.40
2019-01-29T18:05:40.538Z,8.40
2019-01-29T18:07:51.376Z,7.87
2019-01-29T18:10:43.883Z,7.87
2019-01-29T18:12:54.887Z,6.03
2019-01-29T18:15:45.455Z,7.50
2019-01-29T18:17:56.383Z,9.03
2019-01-29T18:20:07.453Z,7.80
2019-01-29T18:22:18.290Z,7.07
2019-01-29T18:24:29.099Z,7.00
2019-01-29T18:26:39.954Z,8.37
2019-01-29T18:28:50.773Z,10.33
2019-01-29T18:31:01.598Z,7.70
2019-01-29T18:33:12.452Z,8.40
2019-01-29T18:35:23.338Z,9.47
2019-01-29T18:37:34.158Z,8.00
2019-01-29T18:39:47.519Z,9.80
2019-01-29T18:42:11.322Z,8.60
2019-01-29T18:44:35.281Z,9.53
2019-01-29T18:46:46.175Z,8.67
2019-01-29T18:48:57.134Z,8.47
2019-01-29T18:53:47.232Z,9.13
2019-01-29T18:55:58.063Z,12.13
2019-01-29T18:58:12.065Z,11.33
2019-01-29T19:00:41.632Z,9.87
2019-01-29T19:02:52.565Z,10.20
2019-01-29T19:05:45.095Z,9.07
2019-01-29T19:07:56.133Z,11.07
2019-01-29T19:10:48.695Z,8.83
2019-01-29T19:12:59.639Z,8.90
2019-01-29T19:15:52.181Z,9.97
2019-01-29T19:18:03.201Z,7.93
2019-01-29T19:20:55.748Z,9.03
2019-01-29T19:23:06.699Z,8.80
2019-01-29T19:25:17.716Z,8.97
2019-01-29T19:27:28.520Z,7.73
2019-01-29T19:29:39.339Z,8.23
2019-01-29T19:31:50.269Z,10.70
2019-01-29T19:34:01.210Z,9.67
2019-01-29T19:36:12.059Z,8.87
2019-01-29T19:38:22.880Z,11.07
2019-01-29T19:45:50.745Z,9.37
2019-01-29T19:48:43.257Z,10.13
2019-01-29T19:55:28.108Z,12.27
2019-01-29T19:57:39.137Z,9.90
2019-01-29T19:59:49.928Z,7.03
2019-01-29T20:02:00.842Z,7.77
2019-01-29T20:04:11.740Z,8.60
2019-01-29T20:06:22.548Z,8.30
2019-01-29T20:10:51.011Z,6.57
2019-01-29T20:13:01.889Z,8.80
2019-01-29T20:18:19.521Z,7.73
2019-01-29T20:21:11.983Z,7.57
2019-01-29T20:23:22.992Z,9.30
2019-01-29T20:25:33.799Z,6.47
2019-01-29T20:27:44.710Z,7.00
2019-01-29T20:29:55.586Z,8.20
2019-01-29T20:32:06.391Z,8.23
2019-01-29T20:34:17.392Z,8.40
2019-01-29T20:36:28.191Z,7.90
2019-01-29T20:38:39.097Z,10.03
2019-01-29T20:40:49.984Z,7.33
2019-01-29T20:43:00.785Z,8.87
2019-01-29T20:45:53.276Z,10.90
2019-01-29T20:48:04.298Z,9.00
2019-01-29T20:50:35.552Z,11.30
2019-01-29T20:52:46.468Z,8.83
2019-01-29T20:55:17.248Z,8.07
2019-01-29T20:57:28.040Z,10.33
2019-01-29T20:59:38.899Z,7.13
2019-01-29T21:01:49.750Z,7.47
2019-01-29T21:04:00.742Z,9.27
2019-01-29T21:06:11.539Z,7.23
2019-01-29T21:08:22.372Z,8.30
2019-01-29T21:10:33.390Z,8.87
2019-01-29T21:12:44.211Z,7.57
2019-01-29T21:14:55.100Z,7.17
2019-01-29T21:17:05.956Z,9.20
2019-01-29T21:19:16.747Z,7.40
2019-01-29T21:21:27.666Z,7.10
2019-01-29T21:23:38.528Z,6.77
2019-01-29T21:25:49.409Z,5.97
2019-01-29T21:28:00.218Z,6.63
2019-01-29T21:30:32.125Z,6.37
2019-01-29T21:32:42.956Z,5.23
2019-01-29T21:34:53.777Z,5.63
2019-01-29T21:37:04.702Z,8.97
2019-01-29T21:39:15.568Z,8.83
2019-01-29T21:41:41.084Z,6.07
2019-01-29T21:43:51.898Z,6.63
2019-01-29T21:46:44.371Z,7.37
2019-01-29T21:48:55.288Z,6.40
2019-01-29T21:51:06.130Z,6.53
2019-01-29T21:53:16.935Z,5.00
2019-01-29T21:55:27.839Z,8.17
2019-01-29T21:57:38.787Z,5.77
2019-01-29T21:59:49.656Z,6.23
2019-01-29T22:02:00.404Z,10.90
2019-01-29T22:04:11.225Z,6.03
2019-01-29T22:06:22.061Z,6.40
2019-01-29T22:08:32.919Z,5.83
2019-01-29T22:10:43.730Z,5.37
2019-01-29T22:12:54.584Z,5.67
2019-01-29T22:15:25.266Z,5.70
2019-01-29T22:17:36.097Z,5.03
2019-01-29T22:19:46.909Z,5.43
2019-01-29T22:21:57.723Z,4.70
2019-01-29T22:24:08.545Z,5.63
2019-01-29T22:26:19.347Z,7.23
2019-01-29T22:28:30.158Z,6.30
2019-01-29T22:30:41.217Z,5.33
2019-01-29T22:32:52.021Z,4.83
2019-01-29T22:35:44.485Z,5.70
2019-01-29T22:37:55.429Z,6.07
2019-01-29T22:40:47.949Z,6.43
2019-01-29T22:43:40.432Z,5.53
2019-01-29T22:45:51.277Z,5.57
2019-01-29T22:50:40.915Z,6.57
2019-01-29T22:52:51.722Z,6.90
2019-01-29T22:55:44.183Z,6.67
2019-01-29T22:57:54.985Z,7.03
2019-01-29T23:00:50.235Z,5.57
2019-01-29T23:03:42.684Z,5.17
2019-01-29T23:06:35.143Z,4.33
2019-01-29T23:08:46.008Z,4.77
2019-01-29T23:10:57.375Z,5.37
2019-01-29T23:13:09.536Z,4.20
2019-01-29T23:16:02.024Z,6.67
2019-01-29T23:18:12.999Z,6.03
2019-01-29T23:21:05.474Z,5.67
2019-01-29T23:23:16.267Z,4.00
2019-01-29T23:25:27.086Z,4.77
2019-01-29T23:27:37.883Z,5.67
2019-01-29T23:29:48.697Z,4.90
2019-01-29T23:31:59.501Z,5.30
2019-01-29T23:34:10.312Z,4.97
2019-01-29T23:36:21.162Z,4.90
2019-01-29T23:38:31.938Z,5.70
2019-01-29T23:40:42.777Z,4.53
2019-01-29T23:42:53.585Z,4.27
2019-01-29T23:45:46.116Z,5.83
2019-01-29T23:48:16.784Z,5.37
2019-01-29T23:51:09.454Z,5.03
2019-01-29T23:53:20.259Z,5.83
2019-01-29T23:55:31.285Z,5.33
2019-01-29T23:57:42.108Z,4.73
2019-01-29T23:59:54.019Z,5.60
